sensor_id;sensor_type;location;lat;lon;timestamp;P1;durP1;ratioP1;P2;durP2;ratioP2
14778;SDS011;7481;53.750;10.570;2024-02-14T00:00:03;6.33;;;3.23;;
14778;SDS011;7481;53.750;10.570;2024-02-14T00:04:33;7.73;;;3.60;;
14778;SDS011;7481;53.750;10.570;2024-02-14T00:09:03;6.07;;;2.90;;
14778;SDS011;7481;53.750;10.570;2024-02-14T00:13:29;8.60;;;3.43;;
14778;SDS011;7481;53.750;10.570;2024-02-14T00:18:08;5.77;;;3.40;;
14778;SDS011;7481;53.750;10.570;2024-02-14T00:22:41;6.27;;;2.83;;
14778;SDS011;7481;53.750;10.570;2024-02-14T00:27:09;3.93;;;2.87;;
14778;SDS011;7481;53.750;10.570;2024-02-14T00:31:39;7.83;;;2.80;;
14778;SDS011;7481;53.750;10.570;2024-02-14T00:36:16;3.53;;;2.67;;
14778;SDS011;7481;53.750;10.570;2024-02-14T00:40:52;7.20;;;3.13;;
14778;SDS011;7481;53.750;10.570;2024-02-14T00:45:21;4.53;;;2.60;;
14778;SDS011;7481;53.750;10.570;2024-02-14T00:49:52;8.50;;;4.07;;
14778;SDS011;7481;53.750;10.570;2024-02-14T00:54:24;18.13;;;7.87;;
14778;SDS011;7481;53.750;10.570;2024-02-14T00:58:57;25.47;;;10.47;;
14778;SDS011;7481;53.750;10.570;2024-02-14T01:03:35;41.23;;;16.93;;
14778;SDS011;7481;53.750;10.570;2024-02-14T01:08:11;24.33;;;9.77;;
14778;SDS011;7481;53.750;10.570;2024-02-14T01:12:40;42.20;;;18.67;;
14778;SDS011;7481;53.750;10.570;2024-02-14T01:17:21;7.47;;;5.07;;
14778;SDS011;7481;53.750;10.570;2024-02-14T01:21:57;4.20;;;2.67;;
14778;SDS011;7481;53.750;10.570;2024-02-14T01:26:29;5.57;;;2.73;;
14778;SDS011;7481;53.750;10.570;2024-02-14T01:30:56;3.77;;;2.33;;
14778;SDS011;7481;53.750;10.570;2024-02-14T01:35:32;4.73;;;3.13;;
14778;SDS011;7481;53.750;10.570;2024-02-14T01:40:07;3.73;;;2.23;;
14778;SDS011;7481;53.750;10.570;2024-02-14T01:44:38;4.77;;;2.20;;
14778;SDS011;7481;53.750;10.570;2024-02-14T01:49:04;4.70;;;2.43;;
14778;SDS011;7481;53.750;10.570;2024-02-14T01:53:35;4.10;;;2.70;;
14778;SDS011;7481;53.750;10.570;2024-02-14T01:58:14;4.37;;;2.43;;
14778;SDS011;7481;53.750;10.570;2024-02-14T02:02:40;5.93;;;2.67;;
14778;SDS011;7481;53.750;10.570;2024-02-14T02:07:04;3.53;;;2.20;;
14778;SDS011;7481;53.750;10.570;2024-02-14T02:11:42;3.70;;;2.50;;
14778;SDS011;7481;53.750;10.570;2024-02-14T02:16:09;3.53;;;2.20;;
14778;SDS011;7481;53.750;10.570;2024-02-14T02:20:31;5.50;;;2.60;;
14778;SDS011;7481;53.750;10.570;2024-02-14T02:24:59;3.00;;;2.17;;
14778;SDS011;7481;53.750;10.570;2024-02-14T02:29:29;4.10;;;2.70;;
14778;SDS011;7481;53.750;10.570;2024-02-14T02:33:58;3.67;;;2.50;;
14778;SDS011;7481;53.750;10.570;2024-02-14T02:38:25;3.70;;;2.57;;
14778;SDS011;7481;53.750;10.570;2024-02-14T02:42:54;8.10;;;3.60;;
14778;SDS011;7481;53.750;10.570;2024-02-14T02:47:31;18.63;;;7.57;;
14778;SDS011;7481;53.750;10.570;2024-02-14T02:52:02;6.67;;;2.90;;
14778;SDS011;7481;53.750;10.570;2024-02-14T02:56:33;5.23;;;2.83;;
14778;SDS011;7481;53.750;10.570;2024-02-14T03:01:36;5.97;;;3.33;;
14778;SDS011;7481;53.750;10.570;2024-02-14T03:06:06;4.93;;;3.07;;
14778;SDS011;7481;53.750;10.570;2024-02-14T03:10:35;4.73;;;3.23;;
14778;SDS011;7481;53.750;10.570;2024-02-14T03:15:04;5.13;;;3.27;;
14778;SDS011;7481;53.750;10.570;2024-02-14T03:19:40;4.80;;;3.20;;
14778;SDS011;7481;53.750;10.570;2024-02-14T03:24:07;5.03;;;3.07;;
14778;SDS011;7481;53.750;10.570;2024-02-14T03:28:37;6.30;;;3.37;;
14778;SDS011;7481;53.750;10.570;2024-02-14T03:33:07;4.93;;;3.03;;
14778;SDS011;7481;53.750;10.570;2024-02-14T03:37:37;5.17;;;3.20;;
14778;SDS011;7481;53.750;10.570;2024-02-14T03:42:01;6.57;;;3.63;;
14778;SDS011;7481;53.750;10.570;2024-02-14T03:46:30;5.83;;;3.63;;
14778;SDS011;7481;53.750;10.570;2024-02-14T03:50:58;8.17;;;4.13;;
14778;SDS011;7481;53.750;10.570;2024-02-14T03:55:36;5.00;;;3.57;;
14778;SDS011;7481;53.750;10.570;2024-02-14T04:00:07;4.30;;;3.50;;
14778;SDS011;7481;53.750;10.570;2024-02-14T04:04:36;4.63;;;3.83;;
14778;SDS011;7481;53.750;10.570;2024-02-14T04:09:09;7.30;;;4.43;;
14778;SDS011;7481;53.750;10.570;2024-02-14T04:13:36;8.70;;;4.67;;
14778;SDS011;7481;53.750;10.570;2024-02-14T04:18:09;4.67;;;3.73;;
14778;SDS011;7481;53.750;10.570;2024-02-14T04:22:41;6.90;;;4.10;;
14778;SDS011;7481;53.750;10.570;2024-02-14T04:27:06;5.97;;;4.07;;
14778;SDS011;7481;53.750;10.570;2024-02-14T04:31:29;6.30;;;4.47;;
14778;SDS011;7481;53.750;10.570;2024-02-14T04:35:57;5.80;;;3.90;;
14778;SDS011;7481;53.750;10.570;2024-02-14T04:40:39;6.23;;;3.93;;
14778;SDS011;7481;53.750;10.570;2024-02-14T04:45:11;6.83;;;4.17;;
14778;SDS011;7481;53.750;10.570;2024-02-14T04:49:50;7.63;;;4.17;;
14778;SDS011;7481;53.750;10.570;2024-02-14T04:54:17;5.93;;;3.97;;
14778;SDS011;7481;53.750;10.570;2024-02-14T04:59:02;8.93;;;4.77;;
14778;SDS011;7481;53.750;10.570;2024-02-14T05:03:34;10.60;;;4.60;;
14778;SDS011;7481;53.750;10.570;2024-02-14T05:08:01;7.20;;;4.73;;
14778;SDS011;7481;53.750;10.570;2024-02-14T05:12:30;6.83;;;4.90;;
14778;SDS011;7481;53.750;10.570;2024-02-14T05:16:58;7.80;;;4.57;;
14778;SDS011;7481;53.750;10.570;2024-02-14T05:21:28;6.20;;;5.43;;
14778;SDS011;7481;53.750;10.570;2024-02-14T05:25:54;8.03;;;5.53;;
14778;SDS011;7481;53.750;10.570;2024-02-14T05:30:24;12.47;;;8.30;;
14778;SDS011;7481;53.750;10.570;2024-02-14T05:34:47;10.77;;;7.40;;
14778;SDS011;7481;53.750;10.570;2024-02-14T05:39:14;10.40;;;6.90;;
14778;SDS011;7481;53.750;10.570;2024-02-14T05:43:55;7.03;;;5.63;;
14778;SDS011;7481;53.750;10.570;2024-02-14T05:48:25;5.97;;;5.00;;
14778;SDS011;7481;53.750;10.570;2024-02-14T05:52:56;9.77;;;5.67;;
14778;SDS011;7481;53.750;10.570;2024-02-14T05:57:26;8.50;;;5.90;;
14778;SDS011;7481;53.750;10.570;2024-02-14T06:01:50;13.60;;;9.87;;
14778;SDS011;7481;53.750;10.570;2024-02-14T06:06:24;12.85;;;8.63;;
14778;SDS011;7481;53.750;10.570;2024-02-14T06:10:53;9.23;;;6.20;;
14778;SDS011;7481;53.750;10.570;2024-02-14T06:15:28;9.13;;;6.53;;
14778;SDS011;7481;53.750;10.570;2024-02-14T06:19:56;8.97;;;6.20;;
14778;SDS011;7481;53.750;10.570;2024-02-14T06:24:23;8.30;;;6.50;;
14778;SDS011;7481;53.750;10.570;2024-02-14T06:28:52;9.07;;;7.20;;
14778;SDS011;7481;53.750;10.570;2024-02-14T06:33:32;7.90;;;5.10;;
14778;SDS011;7481;53.750;10.570;2024-02-14T06:38:02;9.07;;;5.80;;
14778;SDS011;7481;53.750;10.570;2024-02-14T06:42:29;8.13;;;6.07;;
14778;SDS011;7481;53.750;10.570;2024-02-14T06:46:52;7.57;;;5.83;;
14778;SDS011;7481;53.750;10.570;2024-02-14T06:51:24;8.47;;;5.83;;
14778;SDS011;7481;53.750;10.570;2024-02-14T06:55:49;8.57;;;6.83;;
14778;SDS011;7481;53.750;10.570;2024-02-14T07:00:14;10.37;;;6.50;;
14778;SDS011;7481;53.750;10.570;2024-02-14T07:04:40;8.43;;;6.37;;
14778;SDS011;7481;53.750;10.570;2024-02-14T07:09:05;8.27;;;6.43;;
14778;SDS011;7481;53.750;10.570;2024-02-14T07:13:31;13.87;;;10.37;;
14778;SDS011;7481;53.750;10.570;2024-02-14T07:17:54;8.37;;;7.20;;
14778;SDS011;7481;53.750;10.570;2024-02-14T07:22:22;9.70;;;7.40;;
14778;SDS011;7481;53.750;10.570;2024-02-14T07:26:47;9.73;;;7.60;;
14778;SDS011;7481;53.750;10.570;2024-02-14T07:31:15;10.17;;;7.23;;
14778;SDS011;7481;53.750;10.570;2024-02-14T07:35:42;12.93;;;9.53;;
14778;SDS011;7481;53.750;10.570;2024-02-14T07:40:09;9.40;;;7.33;;
14778;SDS011;7481;53.750;10.570;2024-02-14T07:44:43;12.67;;;8.80;;
14778;SDS011;7481;53.750;10.570;2024-02-14T07:49:12;10.97;;;7.73;;
14778;SDS011;7481;53.750;10.570;2024-02-14T07:53:43;12.63;;;8.63;;
14778;SDS011;7481;53.750;10.570;2024-02-14T07:58:14;13.20;;;8.07;;
14778;SDS011;7481;53.750;10.570;2024-02-14T08:02:38;9.97;;;7.60;;
14778;SDS011;7481;53.750;10.570;2024-02-14T08:07:03;10.20;;;7.60;;
14778;SDS011;7481;53.750;10.570;2024-02-14T08:11:27;8.47;;;6.70;;
14778;SDS011;7481;53.750;10.570;2024-02-14T08:15:53;8.97;;;6.93;;
14778;SDS011;7481;53.750;10.570;2024-02-14T08:20:19;10.63;;;7.67;;
14778;SDS011;7481;53.750;10.570;2024-02-14T08:24:44;10.50;;;7.27;;
14778;SDS011;7481;53.750;10.570;2024-02-14T08:29:08;11.03;;;7.73;;
14778;SDS011;7481;53.750;10.570;2024-02-14T08:33:34;11.60;;;7.37;;
14778;SDS011;7481;53.750;10.570;2024-02-14T08:38:00;8.03;;;7.10;;
14778;SDS011;7481;53.750;10.570;2024-02-14T08:42:25;10.97;;;8.30;;
14778;SDS011;7481;53.750;10.570;2024-02-14T08:46:51;10.50;;;7.57;;
14778;SDS011;7481;53.750;10.570;2024-02-14T08:51:21;11.00;;;7.90;;
14778;SDS011;7481;53.750;10.570;2024-02-14T08:55:47;10.13;;;6.93;;
14778;SDS011;7481;53.750;10.570;2024-02-14T09:00:12;9.53;;;8.07;;
14778;SDS011;7481;53.750;10.570;2024-02-14T09:04:42;10.80;;;7.83;;
14778;SDS011;7481;53.750;10.570;2024-02-14T09:09:20;9.40;;;7.63;;
14778;SDS011;7481;53.750;10.570;2024-02-14T09:13:43;9.47;;;7.17;;
14778;SDS011;7481;53.750;10.570;2024-02-14T09:18:11;9.47;;;6.43;;
14778;SDS011;7481;53.750;10.570;2024-02-14T09:22:36;10.00;;;7.60;;
14778;SDS011;7481;53.750;10.570;2024-02-14T09:27:08;10.93;;;8.27;;
14778;SDS011;7481;53.750;10.570;2024-02-14T09:31:37;11.87;;;8.90;;
14778;SDS011;7481;53.750;10.570;2024-02-14T09:36:00;9.67;;;7.33;;
14778;SDS011;7481;53.750;10.570;2024-02-14T09:40:24;8.90;;;7.50;;
14778;SDS011;7481;53.750;10.570;2024-02-14T09:44:49;9.37;;;7.07;;
14778;SDS011;7481;53.750;10.570;2024-02-14T09:49:34;8.67;;;6.83;;
14778;SDS011;7481;53.750;10.570;2024-02-14T09:54:00;7.67;;;5.80;;
14778;SDS011;7481;53.750;10.570;2024-02-14T09:58:25;6.53;;;5.50;;
14778;SDS011;7481;53.750;10.570;2024-02-14T10:02:52;9.20;;;6.40;;
14778;SDS011;7481;53.750;10.570;2024-02-14T10:07:18;8.47;;;5.80;;
14778;SDS011;7481;53.750;10.570;2024-02-14T10:11:41;6.60;;;5.40;;
14778;SDS011;7481;53.750;10.570;2024-02-14T10:16:04;7.70;;;5.97;;
14778;SDS011;7481;53.750;10.570;2024-02-14T10:20:33;6.30;;;5.30;;
14778;SDS011;7481;53.750;10.570;2024-02-14T10:25:04;6.50;;;5.30;;
14778;SDS011;7481;53.750;10.570;2024-02-14T10:29:33;6.17;;;5.20;;
14778;SDS011;7481;53.750;10.570;2024-02-14T10:34:09;6.13;;;5.20;;
14778;SDS011;7481;53.750;10.570;2024-02-14T10:38:36;7.00;;;5.40;;
14778;SDS011;7481;53.750;10.570;2024-02-14T10:43:06;7.53;;;5.10;;
14778;SDS011;7481;53.750;10.570;2024-02-14T10:47:35;7.37;;;5.60;;
14778;SDS011;7481;53.750;10.570;2024-02-14T10:52:02;57.67;;;32.23;;
14778;SDS011;7481;53.750;10.570;2024-02-14T10:56:29;12.60;;;9.87;;
14778;SDS011;7481;53.750;10.570;2024-02-14T11:00:55;6.23;;;5.30;;
14778;SDS011;7481;53.750;10.570;2024-02-14T11:05:46;7.83;;;5.83;;
14778;SDS011;7481;53.750;10.570;2024-02-14T11:10:15;6.40;;;5.53;;
14778;SDS011;7481;53.750;10.570;2024-02-14T11:15:00;5.13;;;4.63;;
14778;SDS011;7481;53.750;10.570;2024-02-14T11:19:36;5.77;;;4.60;;
14778;SDS011;7481;53.750;10.570;2024-02-14T11:24:12;5.20;;;4.30;;
14778;SDS011;7481;53.750;10.570;2024-02-14T11:28:39;6.23;;;4.60;;
14778;SDS011;7481;53.750;10.570;2024-02-14T11:33:18;5.10;;;4.17;;
14778;SDS011;7481;53.750;10.570;2024-02-14T11:37:45;4.77;;;4.27;;
14778;SDS011;7481;53.750;10.570;2024-02-14T11:42:17;5.23;;;3.63;;
14778;SDS011;7481;53.750;10.570;2024-02-14T11:46:44;22.70;;;14.27;;
14778;SDS011;7481;53.750;10.570;2024-02-14T11:51:09;12.53;;;9.07;;
14778;SDS011;7481;53.750;10.570;2024-02-14T11:55:33;19.77;;;12.20;;
14778;SDS011;7481;53.750;10.570;2024-02-14T12:00:13;11.77;;;8.70;;
14778;SDS011;7481;53.750;10.570;2024-02-14T12:04:41;21.97;;;15.87;;
14778;SDS011;7481;53.750;10.570;2024-02-14T12:09:09;7.50;;;6.70;;
14778;SDS011;7481;53.750;10.570;2024-02-14T12:13:35;4.97;;;4.00;;
14778;SDS011;7481;53.750;10.570;2024-02-14T12:18:03;10.20;;;8.37;;
14778;SDS011;7481;53.750;10.570;2024-02-14T12:22:28;21.80;;;17.03;;
14778;SDS011;7481;53.750;10.570;2024-02-14T12:26:56;15.00;;;10.10;;
14778;SDS011;7481;53.750;10.570;2024-02-14T12:31:23;4.83;;;4.33;;
14778;SDS011;7481;53.750;10.570;2024-02-14T12:35:49;3.73;;;3.33;;
14778;SDS011;7481;53.750;10.570;2024-02-14T12:40:13;4.47;;;4.07;;
14778;SDS011;7481;53.750;10.570;2024-02-14T12:44:45;4.27;;;3.87;;
14778;SDS011;7481;53.750;10.570;2024-02-14T12:49:08;4.73;;;4.07;;
14778;SDS011;7481;53.750;10.570;2024-02-14T12:53:31;4.90;;;4.50;;
14778;SDS011;7481;53.750;10.570;2024-02-14T12:57:56;5.13;;;4.63;;
14778;SDS011;7481;53.750;10.570;2024-02-14T13:02:22;4.93;;;4.43;;
14778;SDS011;7481;53.750;10.570;2024-02-14T13:06:50;5.17;;;4.67;;
14778;SDS011;7481;53.750;10.570;2024-02-14T13:11:19;6.17;;;5.57;;
14778;SDS011;7481;53.750;10.570;2024-02-14T13:15:49;14.70;;;9.67;;
14778;SDS011;7481;53.750;10.570;2024-02-14T13:20:15;6.67;;;6.03;;
14778;SDS011;7481;53.750;10.570;2024-02-14T13:24:42;6.43;;;5.57;;
14778;SDS011;7481;53.750;10.570;2024-02-14T13:29:09;6.20;;;5.60;;
14778;SDS011;7481;53.750;10.570;2024-02-14T13:33:37;5.70;;;5.17;;
14778;SDS011;7481;53.750;10.570;2024-02-14T13:38:06;6.57;;;5.80;;
14778;SDS011;7481;53.750;10.570;2024-02-14T13:42:34;6.50;;;5.80;;
14778;SDS011;7481;53.750;10.570;2024-02-14T13:46:58;5.43;;;4.93;;
14778;SDS011;7481;53.750;10.570;2024-02-14T13:51:24;5.73;;;4.93;;
14778;SDS011;7481;53.750;10.570;2024-02-14T13:55:49;5.97;;;5.37;;
14778;SDS011;7481;53.750;10.570;2024-02-14T14:00:13;6.07;;;5.33;;
14778;SDS011;7481;53.750;10.570;2024-02-14T14:04:37;8.73;;;6.63;;
14778;SDS011;7481;53.750;10.570;2024-02-14T14:09:03;6.47;;;5.67;;
14778;SDS011;7481;53.750;10.570;2024-02-14T14:13:36;5.97;;;5.37;;
14778;SDS011;7481;53.750;10.570;2024-02-14T14:18:00;7.40;;;5.50;;
14778;SDS011;7481;53.750;10.570;2024-02-14T14:22:25;7.77;;;6.07;;
14778;SDS011;7481;53.750;10.570;2024-02-14T14:26:52;6.80;;;6.10;;
14778;SDS011;7481;53.750;10.570;2024-02-14T14:31:17;7.83;;;6.63;;
14778;SDS011;7481;53.750;10.570;2024-02-14T14:35:42;10.10;;;8.13;;
14778;SDS011;7481;53.750;10.570;2024-02-14T14:40:09;9.77;;;8.53;;
14778;SDS011;7481;53.750;10.570;2024-02-14T14:44:34;9.93;;;8.80;;
14778;SDS011;7481;53.750;10.570;2024-02-14T14:49:05;12.50;;;10.00;;
14778;SDS011;7481;53.750;10.570;2024-02-14T14:53:33;12.47;;;10.47;;
14778;SDS011;7481;53.750;10.570;2024-02-14T14:58:11;13.17;;;11.13;;
14778;SDS011;7481;53.750;10.570;2024-02-14T15:02:40;13.30;;;10.93;;
14778;SDS011;7481;53.750;10.570;2024-02-14T15:07:05;14.13;;;11.27;;
14778;SDS011;7481;53.750;10.570;2024-02-14T15:11:32;13.77;;;11.53;;
14778;SDS011;7481;53.750;10.570;2024-02-14T15:15:58;11.70;;;10.47;;
14778;SDS011;7481;53.750;10.570;2024-02-14T15:20:27;11.87;;;10.67;;
14778;SDS011;7481;53.750;10.570;2024-02-14T15:24:53;11.63;;;10.43;;
14778;SDS011;7481;53.750;10.570;2024-02-14T15:29:18;12.57;;;10.27;;
14778;SDS011;7481;53.750;10.570;2024-02-14T15:34:01;13.30;;;10.57;;
14778;SDS011;7481;53.750;10.570;2024-02-14T15:38:27;12.30;;;10.87;;
14778;SDS011;7481;53.750;10.570;2024-02-14T15:42:51;11.30;;;10.10;;
14778;SDS011;7481;53.750;10.570;2024-02-14T15:47:16;10.67;;;9.57;;
14778;SDS011;7481;53.750;10.570;2024-02-14T15:51:42;9.70;;;8.00;;
14778;SDS011;7481;53.750;10.570;2024-02-14T15:56:19;9.13;;;7.97;;
14778;SDS011;7481;53.750;10.570;2024-02-14T16:00:49;9.63;;;8.43;;
14778;SDS011;7481;53.750;10.570;2024-02-14T16:05:15;10.83;;;9.30;;
14778;SDS011;7481;53.750;10.570;2024-02-14T16:09:40;10.57;;;8.80;;
14778;SDS011;7481;53.750;10.570;2024-02-14T16:14:07;9.57;;;8.23;;
14778;SDS011;7481;53.750;10.570;2024-02-14T16:18:51;9.87;;;8.87;;
14778;SDS011;7481;53.750;10.570;2024-02-14T16:23:29;10.37;;;9.17;;
14778;SDS011;7481;53.750;10.570;2024-02-14T16:28:00;11.27;;;9.07;;
14778;SDS011;7481;53.750;10.570;2024-02-14T16:32:29;12.17;;;9.20;;
14778;SDS011;7481;53.750;10.570;2024-02-14T16:37:10;12.10;;;9.30;;
14778;SDS011;7481;53.750;10.570;2024-02-14T16:41:51;12.00;;;9.57;;
14778;SDS011;7481;53.750;10.570;2024-02-14T16:51:04;12.00;;;9.50;;
14778;SDS011;7481;53.750;10.570;2024-02-14T16:55:30;21.47;;;15.23;;
14778;SDS011;7481;53.750;10.570;2024-02-14T16:59:58;15.30;;;12.47;;
14778;SDS011;7481;53.750;10.570;2024-02-14T17:04:28;16.97;;;12.00;;
14778;SDS011;7481;53.750;10.570;2024-02-14T17:08:59;14.20;;;11.57;;
14778;SDS011;7481;53.750;10.570;2024-02-14T17:13:31;15.17;;;10.63;;
14778;SDS011;7481;53.750;10.570;2024-02-14T17:18:08;14.63;;;10.77;;
14778;SDS011;7481;53.750;10.570;2024-02-14T17:22:37;15.37;;;11.57;;
14778;SDS011;7481;53.750;10.570;2024-02-14T17:27:08;14.70;;;11.50;;
14778;SDS011;7481;53.750;10.570;2024-02-14T17:31:36;14.57;;;10.97;;
14778;SDS011;7481;53.750;10.570;2024-02-14T17:35:58;14.70;;;11.43;;
14778;SDS011;7481;53.750;10.570;2024-02-14T17:40:31;17.17;;;12.77;;
14778;SDS011;7481;53.750;10.570;2024-02-14T17:44:58;15.77;;;12.30;;
14778;SDS011;7481;53.750;10.570;2024-02-14T17:49:35;17.23;;;13.10;;
14778;SDS011;7481;53.750;10.570;2024-02-14T17:54:01;26.97;;;16.20;;
14778;SDS011;7481;53.750;10.570;2024-02-14T17:58:31;31.83;;;17.43;;
14778;SDS011;7481;53.750;10.570;2024-02-14T18:03:03;26.07;;;16.47;;
14778;SDS011;7481;53.750;10.570;2024-02-14T18:07:31;20.97;;;14.93;;
14778;SDS011;7481;53.750;10.570;2024-02-14T18:12:08;21.37;;;14.97;;
14778;SDS011;7481;53.750;10.570;2024-02-14T18:16:38;20.93;;;15.13;;
14778;SDS011;7481;53.750;10.570;2024-02-14T18:21:01;25.48;;;20.00;;
14778;SDS011;7481;53.750;10.570;2024-02-14T18:25:30;20.20;;;15.17;;
14778;SDS011;7481;53.750;10.570;2024-02-14T18:29:56;25.83;;;17.50;;
14778;SDS011;7481;53.750;10.570;2024-02-14T18:34:25;20.50;;;14.60;;
14778;SDS011;7481;53.750;10.570;2024-02-14T18:38:57;18.97;;;13.83;;
14778;SDS011;7481;53.750;10.570;2024-02-14T18:43:27;20.30;;;14.37;;
14778;SDS011;7481;53.750;10.570;2024-02-14T18:48:03;20.85;;;16.15;;
14778;SDS011;7481;53.750;10.570;2024-02-14T18:52:34;21.83;;;18.27;;
14778;SDS011;7481;53.750;10.570;2024-02-14T18:57:00;19.23;;;13.90;;
14778;SDS011;7481;53.750;10.570;2024-02-14T19:01:54;19.27;;;13.23;;
14778;SDS011;7481;53.750;10.570;2024-02-14T19:06:17;17.97;;;13.07;;
14778;SDS011;7481;53.750;10.570;2024-02-14T19:10:46;18.60;;;12.83;;
14778;SDS011;7481;53.750;10.570;2024-02-14T19:15:26;18.60;;;14.03;;
14778;SDS011;7481;53.750;10.570;2024-02-14T19:20:01;19.77;;;13.10;;
14778;SDS011;7481;53.750;10.570;2024-02-14T19:24:36;19.67;;;13.93;;
14778;SDS011;7481;53.750;10.570;2024-02-14T19:29:05;18.83;;;12.57;;
14778;SDS011;7481;53.750;10.570;2024-02-14T19:33:34;18.27;;;12.37;;
14778;SDS011;7481;53.750;10.570;2024-02-14T19:38:07;23.00;;;15.37;;
14778;SDS011;7481;53.750;10.570;2024-02-14T19:42:33;27.90;;;17.63;;
14778;SDS011;7481;53.750;10.570;2024-02-14T19:47:04;21.53;;;14.47;;
14778;SDS011;7481;53.750;10.570;2024-02-14T19:51:31;24.63;;;15.50;;
14778;SDS011;7481;53.750;10.570;2024-02-14T19:56:02;21.93;;;15.00;;
14778;SDS011;7481;53.750;10.570;2024-02-14T20:00:30;25.60;;;16.13;;
14778;SDS011;7481;53.750;10.570;2024-02-14T20:04:56;28.47;;;17.17;;
14778;SDS011;7481;53.750;10.570;2024-02-14T20:09:24;32.80;;;20.10;;
14778;SDS011;7481;53.750;10.570;2024-02-14T20:13:54;25.77;;;17.27;;
14778;SDS011;7481;53.750;10.570;2024-02-14T20:18:26;25.60;;;16.37;;
14778;SDS011;7481;53.750;10.570;2024-02-14T20:23:00;26.67;;;17.47;;
14778;SDS011;7481;53.750;10.570;2024-02-14T20:27:29;30.80;;;17.13;;
14778;SDS011;7481;53.750;10.570;2024-02-14T20:31:55;30.67;;;17.73;;
14778;SDS011;7481;53.750;10.570;2024-02-14T20:36:20;29.03;;;17.10;;
14778;SDS011;7481;53.750;10.570;2024-02-14T20:40:47;28.47;;;17.50;;
14778;SDS011;7481;53.750;10.570;2024-02-14T20:45:22;29.10;;;17.00;;
14778;SDS011;7481;53.750;10.570;2024-02-14T20:49:46;30.13;;;18.33;;
14778;SDS011;7481;53.750;10.570;2024-02-14T20:54:19;30.73;;;17.83;;
14778;SDS011;7481;53.750;10.570;2024-02-14T20:58:47;31.53;;;18.47;;
14778;SDS011;7481;53.750;10.570;2024-02-14T21:03:31;32.73;;;18.50;;
14778;SDS011;7481;53.750;10.570;2024-02-14T21:07:58;32.17;;;18.83;;
14778;SDS011;7481;53.750;10.570;2024-02-14T21:12:26;35.17;;;19.87;;
14778;SDS011;7481;53.750;10.570;2024-02-14T21:16:57;39.00;;;20.53;;
14778;SDS011;7481;53.750;10.570;2024-02-14T21:21:23;45.43;;;23.67;;
14778;SDS011;7481;53.750;10.570;2024-02-14T21:25:56;40.67;;;21.33;;
14778;SDS011;7481;53.750;10.570;2024-02-14T21:30:28;36.90;;;19.40;;
14778;SDS011;7481;53.750;10.570;2024-02-14T21:35:08;35.97;;;19.57;;
14778;SDS011;7481;53.750;10.570;2024-02-14T21:39:37;31.27;;;17.90;;
14778;SDS011;7481;53.750;10.570;2024-02-14T21:44:07;33.30;;;18.50;;
14778;SDS011;7481;53.750;10.570;2024-02-14T21:48:39;31.60;;;16.97;;
14778;SDS011;7481;53.750;10.570;2024-02-14T21:53:09;30.87;;;16.77;;
14778;SDS011;7481;53.750;10.570;2024-02-14T21:57:33;29.20;;;16.63;;
14778;SDS011;7481;53.750;10.570;2024-02-14T22:02:03;28.27;;;17.00;;
14778;SDS011;7481;53.750;10.570;2024-02-14T22:06:34;31.93;;;17.50;;
14778;SDS011;7481;53.750;10.570;2024-02-14T22:11:11;31.50;;;16.57;;
14778;SDS011;7481;53.750;10.570;2024-02-14T22:15:41;34.50;;;18.63;;
14778;SDS011;7481;53.750;10.570;2024-02-14T22:20:11;36.07;;;18.60;;
14778;SDS011;7481;53.750;10.570;2024-02-14T22:24:41;32.57;;;17.70;;
14778;SDS011;7481;53.750;10.570;2024-02-14T22:29:13;32.23;;;17.47;;
14778;SDS011;7481;53.750;10.570;2024-02-14T22:33:43;33.93;;;18.57;;
14778;SDS011;7481;53.750;10.570;2024-02-14T22:38:16;33.43;;;18.30;;
14778;SDS011;7481;53.750;10.570;2024-02-14T22:42:43;37.37;;;19.50;;
14778;SDS011;7481;53.750;10.570;2024-02-14T22:47:14;34.97;;;18.57;;
14778;SDS011;7481;53.750;10.570;2024-02-14T22:51:42;36.03;;;19.90;;
14778;SDS011;7481;53.750;10.570;2024-02-14T22:56:13;35.30;;;18.67;;
14778;SDS011;7481;53.750;10.570;2024-02-14T23:00:43;36.07;;;18.90;;
14778;SDS011;7481;53.750;10.570;2024-02-14T23:05:19;36.07;;;18.27;;
14778;SDS011;7481;53.750;10.570;2024-02-14T23:09:53;41.47;;;19.37;;
14778;SDS011;7481;53.750;10.570;2024-02-14T23:14:22;37.17;;;18.70;;
14778;SDS011;7481;53.750;10.570;2024-02-14T23:19:11;38.00;;;18.67;;
14778;SDS011;7481;53.750;10.570;2024-02-14T23:23:53;30.80;;;17.10;;
14778;SDS011;7481;53.750;10.570;2024-02-14T23:28:16;36.10;;;18.33;;
14778;SDS011;7481;53.750;10.570;2024-02-14T23:32:45;33.70;;;16.40;;
14778;SDS011;7481;53.750;10.570;2024-02-14T23:37:15;31.40;;;16.50;;
14778;SDS011;7481;53.750;10.570;2024-02-14T23:41:42;30.70;;;16.73;;
14778;SDS011;7481;53.750;10.570;2024-02-14T23:46:14;28.60;;;15.07;;
14778;SDS011;7481;53.750;10.570;2024-02-14T23:50:50;24.13;;;14.17;;
14778;SDS011;7481;53.750;10.570;2024-02-14T23:55:16;27.90;;;14.40;;
14778;SDS011;7481;53.750;10.570;2024-02-14T23:59:48;26.40;;;13.80;;
